Flight Track Log - Related Links

Times and Time Zones

All times are in EDT time to prevent confusion due to time zone crossing. See the SWA59 flight status page for this flight to view local times or setup timezone preferences in your user account.

Time Position Orientation Groundspeed Altitude Reporting Facility
EDT Latitude Longitude Course Direction KTS MPH feet Rate Location/Type
05:44PM 39.8667 -75.2667 218° Southwest 152 175 700  Level Philadelphia TRACON
05:45PM 39.8333 -75.3000 218° Southwest 176 203 2,000 2,278 Climbing Philadelphia TRACON
05:46PM 39.7833 -75.3500 218° Southwest 222 255 4,800 2,697 Climbing Philadelphia TRACON
05:48PM 39.7342 -75.5219 250° West 262 302 10,000 2,080 Climbing New York Center
05:49PM 39.7322 -75.6217 269° West 268 308 10,900 1,008 Climbing New York Center
05:50PM 39.7467 -75.7308 280° West 300 345 12,000 694 Climbing New York Center
05:51PM 39.7647 -75.8456 282° West 337 388 12,300 1,884 Climbing New York Center
05:52PM 39.7836 -75.9847 280° West 351 404 15,800 3,124 Climbing New York Center
05:53PM 39.7761 -76.1056 265° West 365 420 18,600 2,876 Climbing New York Center
05:54PM 39.7639 -76.2344 263° West 365 420 21,600 3,421 Climbing New York Center
05:55PM 39.7533 -76.3714 264° West 371 427 25,500 2,695 Climbing New York Center
05:56PM 39.7450 -76.5031 265° West 371 427 26,900 1,271 Climbing New York Center
05:57PM 39.7317 -76.6450 263° West 384 442 28,000 1,350 Climbing New York Center
05:58PM 39.7197 -76.7981 264° West 407 468 29,600 1,535 Climbing New York Center
05:59PM 39.7111 -76.8592 260° West 417 480 30,200 1,624 Climbing Washington Center
06:00PM 39.6989 -77.0156 264° West 430 495 31,900 1,563 Climbing Washington Center
06:01PM 39.6844 -77.1769 263° West 441 507 33,300 1,438 Climbing Washington Center
06:02PM 39.6367 -77.3269 248° West 447 514 34,800 1,488 Climbing Washington Center
06:03PM 39.5722 -77.4600 238° Southwest 447 514 36,300 1,424 Climbing Washington Center
06:04PM 39.5094 -77.5956 239° Southwest 441 507 37,600 864 Climbing Washington Center
06:05PM 39.4425 -77.7281 237° Southwest 441 507 38,000 198 Climbing Washington Center
06:06PM 39.3797 -77.8631 239° Southwest 446 513 38,000  Level Washington Center
06:07PM 39.3250 -78.0008 243° Southwest 441 507 38,000  Level Washington Center
06:08PM 39.2633 -78.1569 243° Southwest 435 501 38,000  Level Washington Center
06:09PM 39.2186 -78.2975 248° West 435 501 38,000  Level Washington Center
06:10PM 39.1881 -78.4489 255° West 435 501 38,000  Level Washington Center
06:11PM 39.1553 -78.5975 254° West 435 501 38,000  Level Washington Center
06:12PM 39.1222 -78.7486 254° West 435 501 38,000  Level Washington Center
06:13PM 39.0908 -78.9025 255° West 435 501 38,000  Level Washington Center
06:14PM 39.0597 -79.0508 255° West 435 501 38,000  Level Washington Center
06:15PM 39.0281 -79.2042 255° West 435 501 38,000  Level Washington Center
06:16PM 38.9942 -79.3522 254° West 435 501 38,000  Level Washington Center
06:17PM 38.9625 -79.5028 255° West 435 501 38,000  Level Washington Center
06:18PM 38.9281 -79.6583 254° West 441 507 38,000  Level Washington Center
06:19PM 38.8936 -79.8086 254° West 447 514 38,000  Level Washington Center
06:20PM 38.8592 -79.9558 253° West 447 514 38,000  Level Washington Center
06:21PM 38.8178 -80.2003 258° West 439 505 38,000  Level Indianapolis Center
06:22PM 38.8131 -80.3553 268° West 434 499 38,000  Level Indianapolis Center
06:23PM 38.8097 -80.5086 268° West 433 498 38,000  Level Indianapolis Center
06:24PM 38.8039 -80.6931 268° West 432 497 38,000  Level Indianapolis Center
06:25PM 38.7986 -80.8467 268° West 432 497 38,000  Level Indianapolis Center
06:27PM 38.7936 -81.0008 268° West 433 498 38,000  Level Indianapolis Center
06:28PM 38.7886 -81.1528 268° West 430 495 38,000  Level Indianapolis Center
06:29PM 38.7831 -81.3050 267° West 429 494 38,000  Level Indianapolis Center
06:30PM 38.7769 -81.4767 267° West 431 496 38,000  Level Indianapolis Center
06:31PM 38.7722 -81.6306 268° West 433 498 38,000  Level Indianapolis Center
06:32PM 38.7647 -81.7861 267° West 433 498 38,000  Level Indianapolis Center
06:33PM 38.7583 -81.9386 267° West 432 497 38,000  Level Indianapolis Center
06:34PM 38.7519 -82.0914 267° West 432 497 38,000  Level Indianapolis Center
06:35PM 38.7458 -82.2772 268° West 434 499 38,000  Level Indianapolis Center
06:36PM 38.7389 -82.4317 267° West 435 501 38,000  Level Indianapolis Center
06:37PM 38.7319 -82.5861 267° West 436 502 38,000  Level Indianapolis Center
06:38PM 38.7233 -82.7433 266° West 440 506 38,000  Level Indianapolis Center
06:39PM 38.6997 -82.8969 259° West 440 506 38,000  Level Indianapolis Center
06:40PM 38.6789 -83.0503 260° West 438 504 38,000  Level Indianapolis Center
06:41PM 38.6556 -83.2264 260° West 427 491 38,000  Level Indianapolis Center
06:42PM 38.6361 -83.3622 260° West 424 488 38,000  Level Indianapolis Center
06:43PM 38.6119 -83.5306 260° West 417 480 38,000  Level Indianapolis Center
06:44PM 38.5908 -83.6778 260° West 420 483 38,000  Level Indianapolis Center
06:45PM 38.5697 -83.8247 260° West 420 483 38,000  Level Indianapolis Center
06:46PM 38.5483 -83.9742 260° West 427 491 38,000  Level Indianapolis Center
06:47PM 38.5256 -84.1256 259° West 434 499 38,000  Level Indianapolis Center
06:48PM 38.4989 -84.3019 259° West 436 502 38,000  Level Indianapolis Center
06:49PM 38.4778 -84.4489 260° West 426 490 38,000  Level Indianapolis Center
06:50PM 38.4550 -84.5956 259° West 422 486 38,000  Level Indianapolis Center
06:51PM 38.4331 -84.7417 259° West 421 484 38,000  Level Indianapolis Center
06:52PM 38.4064 -84.9128 259° West 423 487 38,000  Level Indianapolis Center
06:53PM 38.3833 -85.0594 259° West 422 486 38,000  Level Indianapolis Center
06:54PM 38.3603 -85.2067 259° West 423 487 38,000  Level Indianapolis Center
06:55PM 38.3383 -85.3400 258° West 425 489 38,000  Level Indianapolis Center
06:56PM 38.3117 -85.5156 259° West 421 484 38,000  Level Indianapolis Center
06:58PM 38.2878 -85.6622 258° West 422 486 38,000  Level Indianapolis Center
06:59PM 38.2644 -85.8086 259° West 421 484 38,000  Level Indianapolis Center
07:00PM 38.2403 -85.9542 258° West 422 486 38,000  Level Indianapolis Center
07:01PM 38.2156 -86.0983 258° West 417 480 38,000  Level Indianapolis Center
07:02PM 38.1928 -86.2431 259° West 416 479 38,000  Level Indianapolis Center
07:03PM 38.1686 -86.3881 258° West 417 480 38,000  Level Indianapolis Center
07:04PM 38.1389 -86.5608 258° West 416 479 38,000  Level Indianapolis Center
07:05PM 38.1136 -86.7042 257° West 415 478 38,000  Level Indianapolis Center
07:06PM 38.0897 -86.8489 258° West 414 476 38,000  Level Indianapolis Center
07:07PM 38.0647 -86.9917 258° West 410 472 38,000 -484 Level Indianapolis Center
07:08PM 38.0394 -87.1344 257° West 408 470 37,000 -919 Descending Indianapolis Center
07:09PM 38.0147 -87.2775 258° West 409 471 36,100 -919 Descending Indianapolis Center
07:10PM 37.9897 -87.4192 257° West 409 471 35,100 -1,016 Descending Indianapolis Center
07:11PM 37.9642 -87.5608 257° West 410 472 34,000 -532 Descending Indianapolis Center
07:12PM 37.9392 -87.7011 257° West 408 470 34,000 -48 Level Indianapolis Center
07:13PM 37.9169 -87.8419 259° West 406 467 33,900 -629 Descending Indianapolis Center
07:14PM 37.8953 -88.0094 261° West 402 463 32,700 -919 Descending Indianapolis Center
07:15PM 37.8747 -88.1508 260° West 406 467 32,000 -339 Descending Indianapolis Center
07:16PM 37.8569 -88.2944 261° West 411 473 32,000  Level Indianapolis Center
07:17PM 37.8397 -88.4364 261° West 409 471 32,000  Level Indianapolis Center
07:18PM 37.8272 -88.5783 264° West 405 466 32,000  Level Indianapolis Center
07:19PM 37.8128 -88.7197 263° West 403 464 32,000  Level Indianapolis Center
07:20PM 37.7989 -88.8614 263° West 405 466 32,000  Level Indianapolis Center
07:21PM 37.7836 -89.0042 262° West 406 467 32,000 -1,113 Level Indianapolis Center
07:22PM 37.7728 -89.1742 265° West 404 465 29,700 -2,226 Descending Indianapolis Center
07:23PM 37.7925 -89.3119 280° West 395 455 27,400 -2,177 Descending Indianapolis Center
07:24PM 37.8086 -89.4450 279° West 386 444 25,200 -2,029 Descending Indianapolis Center
07:26PM 37.8250 -89.5894 278° West 380 437 22,800 -2,118 Descending Kansas City Center
07:27PM 37.8478 -89.7331 281° West 364 419 20,400 -2,226 Descending Kansas City Center
07:28PM 37.8975 -89.8494 298° West 350 403 18,200 -1,984 Descending Kansas City Center
07:29PM 37.9436 -89.9558 299° West 345 397 16,300 -1,951 Descending Kansas City Center
07:30PM 38.0289 -90.0122 332° Northwest 347 399 14,200 -2,000 Descending Kansas City Center
07:31PM 38.1111 -90.0592 336° Northwest 342 394 12,200 -1,839 Descending Kansas City Center
07:32PM 38.2025 -90.0772 351° North 337 388 10,400 -1,403 Descending Kansas City Center
07:33PM 38.2869 -90.0864 355° North 317 365 9,300 -1,317 Descending Kansas City Center
07:34PM 38.3847 -90.0972 355° North 299 344 7,700 -1,512 Descending Kansas City Center
07:35PM 38.4675 -90.1061 355° North 287 330 6,200 -1,403 Descending Kansas City Center
07:36PM 38.5367 -90.1258 347° North 277 319 4,800 -1,258 Descending Kansas City Center
07:37PM 38.6089 -90.1586 340° North 277 319 3,600 -780 Descending Kansas City Center
07:38PM 38.6697 -90.1978 333° Northwest 267 307 3,200 -390 Descending Kansas City Center
07:39PM 38.6967 -90.2542 301° West 216 249 2,800 -919 Descending Kansas City Center
07:40PM 38.7181 -90.2978 302° West 151 174 1,300 -1,024 Descending Kansas City Center
07:41PM 38.7353 -90.3328 302° West 129 148 700 -341 Descending Kansas City Center
07:42PM 38.7528 -90.3694 301° West 128 147 600 -97 Descending Kansas City Center
07:44PM 38.7487 -90.3700 180° South  Level Estimated

Login

Don't have an account? Register now (free) for customized features, flight alerts, and more!